createdAt,value
2023-01-07T00:00:25.348Z,8.90
2023-01-07T00:02:30.718Z,8.90
2023-01-07T00:04:35.686Z,8.90
2023-01-07T00:06:43.152Z,8.90
2023-01-07T00:08:50.882Z,8.90
2023-01-07T00:10:55.810Z,8.90
2023-01-07T00:13:00.670Z,8.90
2023-01-07T00:15:10.063Z,8.90
2023-01-07T00:17:14.929Z,8.90
2023-01-07T00:19:21.750Z,8.80
2023-01-07T00:21:28.735Z,8.90
2023-01-07T00:23:35.061Z,8.90
2023-01-07T00:25:39.938Z,8.90
2023-01-07T00:27:44.852Z,8.90
2023-01-07T00:29:49.734Z,8.90
2023-01-07T00:31:57.203Z,8.90
2023-01-07T00:34:11.686Z,8.90
2023-01-07T00:36:16.645Z,8.90
2023-01-07T00:38:21.517Z,8.90
2023-01-07T00:40:26.529Z,8.90
2023-01-07T00:42:44.006Z,8.90
2023-01-07T00:44:49.072Z,8.90
2023-01-07T00:46:56.579Z,8.90
2023-01-07T00:49:02.130Z,8.90
2023-01-07T00:51:07.152Z,8.90
2023-01-07T00:53:13.883Z,8.90
2023-01-07T00:55:19.321Z,8.90
2023-01-07T00:57:24.389Z,8.90
2023-01-07T00:59:29.300Z,8.90
2023-01-07T01:01:34.354Z,8.90
2023-01-07T01:03:43.758Z,8.90
2023-01-07T01:05:49.053Z,8.90
2023-01-07T01:07:54.481Z,8.90
2023-01-07T01:09:59.953Z,8.90
2023-01-07T01:12:05.577Z,8.90
2023-01-07T01:14:10.491Z,8.80
2023-01-07T01:16:19.120Z,8.90
2023-01-07T01:18:24.051Z,8.80
2023-01-07T01:20:32.574Z,8.80
2023-01-07T01:22:37.975Z,8.80
2023-01-07T01:24:43.170Z,8.80
2023-01-07T01:26:48.036Z,8.80
2023-01-07T01:28:53.286Z,8.80
2023-01-07T01:31:01.962Z,8.80
2023-01-07T01:33:15.839Z,8.80
2023-01-07T01:35:21.113Z,8.70
2023-01-07T01:37:29.113Z,8.80
2023-01-07T01:39:35.889Z,8.80
2023-01-07T01:41:41.339Z,8.70
2023-01-07T01:43:47.801Z,8.70
2023-01-07T01:45:53.237Z,8.70
2023-01-07T01:48:06.285Z,8.70
2023-01-07T01:50:18.491Z,8.70
2023-01-07T01:52:32.265Z,8.70
2023-01-07T01:54:37.391Z,8.70
2023-01-07T01:56:51.301Z,8.60
2023-01-07T01:59:02.568Z,8.60
2023-01-07T02:01:08.715Z,8.60
2023-01-07T02:03:19.196Z,8.70
2023-01-07T02:05:24.818Z,8.60
2023-01-07T02:07:32.308Z,8.60
2023-01-07T02:09:37.231Z,8.60
2023-01-07T02:11:58.670Z,8.60
2023-01-07T02:14:27.700Z,8.60
2023-01-07T02:16:41.518Z,8.50
2023-01-07T02:19:03.828Z,8.50
2023-01-07T02:21:33.117Z,8.50
2023-01-07T02:24:11.750Z,8.50
2023-01-07T02:26:52.177Z,8.50
2023-01-07T02:29:33.679Z,8.50
2023-01-07T02:32:39.269Z,8.50
2023-01-07T02:34:53.317Z,8.40
2023-01-07T02:37:08.596Z,8.50
2023-01-07T02:39:30.647Z,8.50
2023-01-07T02:41:50.293Z,8.50
2023-01-07T02:44:05.311Z,8.50
2023-01-07T02:46:22.608Z,8.50
2023-01-07T02:48:30.921Z,8.50
2023-01-07T02:50:35.898Z,8.50
2023-01-07T02:52:41.597Z,8.50
2023-01-07T02:54:48.406Z,8.50
2023-01-07T02:57:21.234Z,8.50
2023-01-07T03:00:04.266Z,8.50
2023-01-07T03:02:40.749Z,8.50
2023-01-07T03:05:35.556Z,8.50
2023-01-07T03:07:57.914Z,8.50
2023-01-07T03:10:08.896Z,8.40
2023-01-07T03:12:23.491Z,8.40
2023-01-07T03:14:39.711Z,8.40
2023-01-07T03:16:51.900Z,8.40
2023-01-07T03:19:06.161Z,8.40
2023-01-07T03:21:19.433Z,8.40
2023-01-07T03:23:29.289Z,8.40
2023-01-07T03:25:38.128Z,8.40
2023-01-07T03:27:47.861Z,8.40
2023-01-07T03:29:54.555Z,8.40
2023-01-07T03:32:06.145Z,8.40
2023-01-07T03:34:15.463Z,8.40
2023-01-07T03:36:28.702Z,8.50
2023-01-07T03:38:35.068Z,8.50
2023-01-07T03:40:40.851Z,8.50
2023-01-07T03:42:49.063Z,8.50
2023-01-07T03:45:01.454Z,8.50
2023-01-07T03:47:09.986Z,8.50
2023-01-07T03:49:15.287Z,8.50
2023-01-07T03:51:22.854Z,8.50
2023-01-07T03:53:27.802Z,8.50
2023-01-07T03:55:33.791Z,8.50
2023-01-07T03:57:38.833Z,8.50
2023-01-07T03:59:44.121Z,8.50
2023-01-07T04:01:49.799Z,8.50
2023-01-07T04:03:55.213Z,8.50
2023-01-07T04:06:00.899Z,8.50
2023-01-07T04:08:09.261Z,8.50
2023-01-07T04:10:16.931Z,8.50
2023-01-07T04:12:22.030Z,8.50
2023-01-07T04:14:27.966Z,8.50
2023-01-07T04:16:33.078Z,8.50
2023-01-07T04:18:38.754Z,8.50
2023-01-07T04:20:48.408Z,8.50
2023-01-07T04:22:54.260Z,8.40
2023-01-07T04:25:01.960Z,8.40
2023-01-07T04:27:07.451Z,8.40
2023-01-07T04:29:13.935Z,8.50
2023-01-07T04:31:19.241Z,8.40
2023-01-07T04:33:24.565Z,8.50
2023-01-07T04:35:30.112Z,8.40
2023-01-07T04:37:36.294Z,8.40
2023-01-07T04:39:41.375Z,8.40
2023-01-07T04:41:49.040Z,8.50
2023-01-07T04:43:54.216Z,8.40
2023-01-07T04:45:59.165Z,8.50
2023-01-07T04:48:04.282Z,8.50
2023-01-07T04:50:10.987Z,8.40
2023-01-07T04:52:16.672Z,8.50
2023-01-07T04:54:21.958Z,8.50
2023-01-07T04:56:27.836Z,8.50
2023-01-07T04:58:36.137Z,8.40
2023-01-07T05:00:41.643Z,8.40
2023-01-07T05:02:46.667Z,8.40
2023-01-07T05:04:51.687Z,8.40
2023-01-07T05:06:58.877Z,8.40
2023-01-07T05:09:05.338Z,8.40
2023-01-07T05:11:11.586Z,8.50
2023-01-07T05:13:22.655Z,8.40
2023-01-07T05:15:30.223Z,8.50
2023-01-07T05:17:35.265Z,8.50
2023-01-07T05:19:42.343Z,8.40
2023-01-07T05:21:50.483Z,8.50
2023-01-07T05:23:56.297Z,8.50
2023-01-07T05:26:01.318Z,8.50
2023-01-07T05:28:08.696Z,8.50
2023-01-07T05:30:16.374Z,8.50
2023-01-07T05:32:25.331Z,8.50
2023-01-07T05:34:31.202Z,8.50
2023-01-07T05:36:36.753Z,8.50
2023-01-07T05:38:43.497Z,8.50
2023-01-07T05:40:51.566Z,8.50
2023-01-07T05:43:00.762Z,8.50
2023-01-07T05:45:08.162Z,8.40
2023-01-07T05:47:13.170Z,8.50
2023-01-07T05:49:21.202Z,8.40
2023-01-07T05:51:26.643Z,8.50
2023-01-07T05:53:31.704Z,8.50
2023-01-07T05:55:39.170Z,8.50
2023-01-07T05:57:44.157Z,8.50
2023-01-07T05:59:49.718Z,8.50
2023-01-07T06:01:55.310Z,8.50
2023-01-07T06:04:00.287Z,8.50
2023-01-07T06:06:09.661Z,8.40
2023-01-07T06:08:14.725Z,8.40
2023-01-07T06:10:20.453Z,8.30
2023-01-07T06:12:25.868Z,8.30
2023-01-07T06:14:30.911Z,8.30
2023-01-07T06:16:36.192Z,8.30
2023-01-07T06:18:41.793Z,8.30
2023-01-07T06:20:47.116Z,8.30
2023-01-07T06:22:54.920Z,8.30
2023-01-07T06:24:59.915Z,8.30
2023-01-07T06:27:05.198Z,8.30
2023-01-07T06:29:10.551Z,8.30
2023-01-07T06:31:15.583Z,8.30
2023-01-07T06:33:21.987Z,8.30
2023-01-07T06:35:26.956Z,8.30
2023-01-07T06:37:31.908Z,8.20
2023-01-07T06:39:39.944Z,8.20
2023-01-07T06:41:44.910Z,8.20
2023-01-07T06:43:50.228Z,8.20
2023-01-07T06:45:55.498Z,8.20
2023-01-07T06:48:00.869Z,8.30
2023-01-07T06:50:06.339Z,8.30
2023-01-07T06:52:11.366Z,8.30
2023-01-07T06:54:17.360Z,8.30
2023-01-07T06:56:25.087Z,8.30
2023-01-07T06:58:30.040Z,8.30
2023-01-07T07:00:35.864Z,8.30
2023-01-07T07:02:40.876Z,8.30
2023-01-07T07:04:46.674Z,8.30
2023-01-07T07:06:51.662Z,8.30
2023-01-07T07:08:56.612Z,8.30
2023-01-07T07:11:01.637Z,8.30
2023-01-07T07:13:09.185Z,8.30
2023-01-07T07:15:15.030Z,8.20
2023-01-07T07:17:20.006Z,8.20
2023-01-07T07:19:25.832Z,8.20
2023-01-07T07:21:31.109Z,8.20
2023-01-07T07:23:36.133Z,8.30
2023-01-07T07:25:41.150Z,8.20
2023-01-07T07:27:48.970Z,8.20
2023-01-07T07:29:56.776Z,8.20
2023-01-07T07:32:02.128Z,8.30
2023-01-07T07:34:07.196Z,8.30
2023-01-07T07:36:13.705Z,8.30
2023-01-07T07:38:19.643Z,8.30
2023-01-07T07:40:24.608Z,8.30
2023-01-07T07:42:29.647Z,8.30
2023-01-07T07:44:34.990Z,8.30
2023-01-07T07:46:42.625Z,8.30
2023-01-07T07:48:47.870Z,8.30
2023-01-07T07:50:54.547Z,8.30
2023-01-07T07:52:59.743Z,8.30
2023-01-07T07:55:19.937Z,8.30
2023-01-07T07:57:31.825Z,8.30
2023-01-07T07:59:36.899Z,8.40
2023-01-07T08:01:44.909Z,8.40
2023-01-07T08:03:49.953Z,8.30
2023-01-07T08:05:55.951Z,8.40
2023-01-07T08:08:01.486Z,8.40
2023-01-07T08:10:08.269Z,8.30
2023-01-07T08:12:13.635Z,8.40
2023-01-07T08:14:18.630Z,8.40
2023-01-07T08:16:24.043Z,8.40
2023-01-07T08:18:32.005Z,8.40
2023-01-07T08:20:39.153Z,8.40
2023-01-07T08:22:44.167Z,8.40
2023-01-07T08:24:49.140Z,8.40
2023-01-07T08:26:55.779Z,8.40
2023-01-07T08:29:00.733Z,8.40
2023-01-07T08:31:06.557Z,8.40
2023-01-07T08:33:12.128Z,8.40
2023-01-07T08:35:19.909Z,8.40
2023-01-07T08:37:25.267Z,8.40
2023-01-07T08:39:30.728Z,8.40
2023-01-07T08:41:35.713Z,8.50
2023-01-07T08:43:41.885Z,8.40
2023-01-07T08:45:52.159Z,8.50
2023-01-07T08:47:58.179Z,8.50
2023-01-07T08:50:03.603Z,8.50
2023-01-07T08:52:11.291Z,8.50
2023-01-07T08:54:16.458Z,8.50
2023-01-07T08:56:22.896Z,8.50
2023-01-07T08:58:28.077Z,8.50
2023-01-07T09:00:34.481Z,8.60
2023-01-07T09:02:39.558Z,8.60
2023-01-07T09:04:44.601Z,8.60
2023-01-07T09:06:50.200Z,8.60
2023-01-07T09:08:57.759Z,8.70
2023-01-07T09:11:02.787Z,8.60
2023-01-07T09:13:08.025Z,8.70
2023-01-07T09:15:15.140Z,8.60
2023-01-07T09:17:20.110Z,8.70
2023-01-07T09:19:26.998Z,8.70
2023-01-07T09:21:31.956Z,8.70
2023-01-07T09:23:36.964Z,8.70
2023-01-07T09:25:44.520Z,8.70
2023-01-07T09:27:50.253Z,8.70
2023-01-07T09:29:58.661Z,8.70
2023-01-07T09:32:03.633Z,8.70
2023-01-07T09:34:08.700Z,8.70
2023-01-07T09:36:13.684Z,8.70
2023-01-07T09:38:21.858Z,8.70
2023-01-07T09:44:00.005Z,8.70
2023-01-07T09:45:56.017Z,8.70
2023-01-07T09:48:05.182Z,8.80
2023-01-07T09:50:25.270Z,8.80
2023-01-07T09:52:36.919Z,8.80
2023-01-07T09:54:43.048Z,8.80
2023-01-07T09:56:49.207Z,8.80
2023-01-07T09:58:59.650Z,8.80
2023-01-07T10:01:19.165Z,8.80
2023-01-07T10:03:39.742Z,8.80
2023-01-07T10:05:59.234Z,8.80
2023-01-07T10:08:30.753Z,8.80
2023-01-07T10:10:47.223Z,8.80
2023-01-07T10:13:06.408Z,8.80
2023-01-07T10:15:56.639Z,8.80
2023-01-07T10:18:23.450Z,8.90
2023-01-07T10:20:39.317Z,8.90
2023-01-07T10:22:53.472Z,8.90
2023-01-07T10:25:04.654Z,8.90
2023-01-07T10:27:15.952Z,8.90
2023-01-07T10:29:30.484Z,8.90
2023-01-07T10:31:39.094Z,8.90
2023-01-07T10:33:44.145Z,8.90
2023-01-07T10:35:54.767Z,8.90
2023-01-07T10:38:03.725Z,8.90
2023-01-07T10:40:30.766Z,8.90
2023-01-07T10:42:41.751Z,8.90
2023-01-07T10:45:41.639Z,8.90
2023-01-07T10:48:08.729Z,8.90
2023-01-07T10:50:47.861Z,8.90
2023-01-07T10:53:02.798Z,8.90
2023-01-07T10:55:43.633Z,8.90
2023-01-07T10:57:50.995Z,8.90
2023-01-07T11:00:02.428Z,8.90
2023-01-07T11:02:16.914Z,8.90
2023-01-07T11:04:24.581Z,8.90
2023-01-07T11:06:43.591Z,8.90
2023-01-07T11:08:50.136Z,8.90
2023-01-07T11:10:56.901Z,8.90
2023-01-07T11:13:05.784Z,8.90
2023-01-07T11:15:19.556Z,8.90
2023-01-07T11:17:34.513Z,9.00
2023-01-07T11:19:51.620Z,9.00
2023-01-07T11:21:56.526Z,9.00
2023-01-07T11:24:01.917Z,9.00
2023-01-07T11:26:21.069Z,9.00
2023-01-07T11:28:31.920Z,9.00
2023-01-07T11:30:37.813Z,9.00
2023-01-07T11:32:43.950Z,9.00
2023-01-07T11:34:59.808Z,9.00
2023-01-07T11:37:05.756Z,9.00
2023-01-07T11:39:21.468Z,9.00
2023-01-07T11:41:29.273Z,9.00
2023-01-07T11:43:35.640Z,9.00
2023-01-07T11:46:19.358Z,9.00
2023-01-07T11:48:27.072Z,9.00
2023-01-07T11:50:40.139Z,9.00
2023-01-07T11:52:59.825Z,9.10
2023-01-07T11:55:06.130Z,9.10
2023-01-07T11:57:16.269Z,9.10
2023-01-07T11:59:32.669Z,9.10
2023-01-07T12:01:46.408Z,9.10
2023-01-07T12:04:16.694Z,9.10
2023-01-07T12:06:30.140Z,9.20
2023-01-07T12:08:36.475Z,9.20
2023-01-07T12:10:45.532Z,9.20
2023-01-07T12:12:50.618Z,9.20
2023-01-07T12:14:57.317Z,9.20
2023-01-07T12:17:16.797Z,9.30
2023-01-07T12:19:45.356Z,9.30
2023-01-07T12:22:07.361Z,9.30
2023-01-07T12:24:34.972Z,9.30
2023-01-07T12:26:50.329Z,9.30
2023-01-07T12:29:12.064Z,9.30
2023-01-07T12:31:38.201Z,9.30
2023-01-07T12:34:07.822Z,9.30
2023-01-07T12:36:23.051Z,9.30
2023-01-07T12:38:43.262Z,9.30
2023-01-07T12:40:53.800Z,9.30
2023-01-07T12:43:05.333Z,9.30
2023-01-07T12:45:22.266Z,9.30
2023-01-07T12:47:35.493Z,9.30
2023-01-07T12:49:48.591Z,9.30
2023-01-07T12:51:59.471Z,9.30
2023-01-07T12:54:15.161Z,9.30
2023-01-07T12:56:26.024Z,9.30
2023-01-07T12:58:46.498Z,9.40
2023-01-07T13:01:00.214Z,9.40
2023-01-07T13:03:20.850Z,9.40
2023-01-07T13:05:33.617Z,9.40
2023-01-07T13:07:48.235Z,9.40
2023-01-07T13:10:05.543Z,9.40
2023-01-07T13:12:40.582Z,9.40
2023-01-07T13:14:57.858Z,9.40
2023-01-07T13:17:17.177Z,9.40
2023-01-07T13:19:22.789Z,9.40
2023-01-07T13:21:28.211Z,9.40
2023-01-07T13:24:03.356Z,9.40
2023-01-07T13:26:32.139Z,9.50
2023-01-07T13:29:13.803Z,9.50
2023-01-07T13:32:00.766Z,9.50
2023-01-07T13:34:17.466Z,9.50
2023-01-07T13:36:32.917Z,9.50
2023-01-07T13:39:05.344Z,9.50
2023-01-07T13:41:28.019Z,9.50
2023-01-07T13:44:02.977Z,9.50
2023-01-07T13:46:17.020Z,9.50
2023-01-07T13:48:27.945Z,9.40
2023-01-07T13:50:40.042Z,9.40
2023-01-07T13:52:46.320Z,9.40
2023-01-07T13:55:03.008Z,9.40
2023-01-07T13:57:44.691Z,9.40
2023-01-07T13:59:55.908Z,9.40
2023-01-07T14:02:26.157Z,9.40
2023-01-07T14:04:49.689Z,9.40
2023-01-07T14:06:55.691Z,9.40
2023-01-07T14:09:16.853Z,9.40
2023-01-07T14:11:25.413Z,9.40
2023-01-07T14:13:42.295Z,9.40
2023-01-07T14:16:11.341Z,9.40
2023-01-07T14:19:01.679Z,9.40
2023-01-07T14:21:29.242Z,9.40
2023-01-07T14:23:43.292Z,9.40
2023-01-07T14:26:08.160Z,9.40
2023-01-07T14:29:02.144Z,9.30
2023-01-07T14:31:08.988Z,9.30
2023-01-07T14:33:23.014Z,9.30
2023-01-07T14:35:38.292Z,9.30
2023-01-07T14:37:47.447Z,9.30
2023-01-07T14:39:52.737Z,9.30
2023-01-07T14:42:43.325Z,9.30
2023-01-07T14:44:53.198Z,9.30
2023-01-07T14:46:58.266Z,9.20
2023-01-07T14:49:58.352Z,9.20
2023-01-07T14:52:11.018Z,9.30
2023-01-07T14:54:47.437Z,9.30
2023-01-07T14:57:07.782Z,9.20
2023-01-07T14:59:38.264Z,9.20
2023-01-07T15:02:03.862Z,9.20
2023-01-07T15:04:47.578Z,9.20
2023-01-07T15:06:54.390Z,9.20
2023-01-07T15:09:21.337Z,9.20
2023-01-07T15:11:41.663Z,9.20
2023-01-07T15:14:09.232Z,9.20
2023-01-07T15:16:16.144Z,9.20
2023-01-07T15:18:23.914Z,9.10
2023-01-07T15:20:42.458Z,9.10
2023-01-07T15:23:09.695Z,9.10
2023-01-07T15:25:30.374Z,9.10
2023-01-07T15:27:47.938Z,9.10
2023-01-07T15:30:00.745Z,9.10
2023-01-07T15:32:17.572Z,9.10
2023-01-07T15:34:35.300Z,9.10
2023-01-07T15:36:43.275Z,9.00
2023-01-07T15:38:52.955Z,9.00
2023-01-07T15:40:59.499Z,9.00
2023-01-07T15:43:06.289Z,9.00
2023-01-07T15:45:20.934Z,9.00
2023-01-07T15:47:41.137Z,9.00
2023-01-07T15:49:49.070Z,9.00
2023-01-07T15:51:56.899Z,9.00
2023-01-07T15:54:01.970Z,9.00
2023-01-07T15:56:11.561Z,8.90
2023-01-07T15:58:20.363Z,8.90
2023-01-07T16:00:27.826Z,9.00
2023-01-07T16:02:38.943Z,9.20
2023-01-07T16:04:44.658Z,9.00
2023-01-07T16:06:52.405Z,8.90
2023-01-07T16:08:57.759Z,8.80
2023-01-07T16:11:06.132Z,8.80
2023-01-07T16:13:21.392Z,8.80
2023-01-07T16:15:30.945Z,8.70
2023-01-07T16:17:36.217Z,8.80
2023-01-07T16:19:41.557Z,8.80
2023-01-07T16:21:54.299Z,8.70
2023-01-07T16:24:00.319Z,8.70
2023-01-07T16:26:08.876Z,8.70
2023-01-07T16:28:21.817Z,8.80
2023-01-07T16:30:26.994Z,8.80
2023-01-07T16:32:32.090Z,8.70
2023-01-07T16:35:21.545Z,8.70
2023-01-07T16:37:31.573Z,8.70
2023-01-07T16:39:41.409Z,8.70
2023-01-07T16:41:46.659Z,8.60
2023-01-07T16:43:53.126Z,8.60
2023-01-07T16:46:18.977Z,8.60
2023-01-07T16:48:24.550Z,8.60
2023-01-07T16:50:40.928Z,8.60
2023-01-07T16:52:55.610Z,8.50
2023-01-07T16:55:00.883Z,8.50
2023-01-07T16:57:09.138Z,8.50
2023-01-07T16:59:16.660Z,8.50
2023-01-07T17:01:34.027Z,8.40
2023-01-07T17:03:50.399Z,8.50
2023-01-07T17:06:06.338Z,8.50
2023-01-07T17:08:21.901Z,8.50
2023-01-07T17:10:31.023Z,8.40
2023-01-07T17:12:41.288Z,8.50
2023-01-07T17:14:53.022Z,8.50
2023-01-07T17:17:03.138Z,8.50
2023-01-07T17:19:27.945Z,8.50
2023-01-07T17:21:46.110Z,8.50
2023-01-07T17:23:53.705Z,8.60
2023-01-07T17:25:59.870Z,8.60
2023-01-07T17:28:16.642Z,8.60
2023-01-07T17:30:24.523Z,8.60
2023-01-07T17:32:29.729Z,8.60
2023-01-07T17:34:34.806Z,8.60
2023-01-07T17:36:39.786Z,8.50
2023-01-07T17:38:44.985Z,8.50
2023-01-07T17:40:54.499Z,8.50
2023-01-07T17:43:12.016Z,8.50
2023-01-07T17:45:22.893Z,8.50
2023-01-07T17:47:27.859Z,8.50
2023-01-07T17:49:32.907Z,8.50
2023-01-07T17:51:41.951Z,8.50
2023-01-07T17:53:49.964Z,8.50
2023-01-07T17:55:57.942Z,8.50
2023-01-07T17:58:02.698Z,8.50
2023-01-07T18:00:15.428Z,8.50
2023-01-07T18:02:23.340Z,8.50
2023-01-07T18:04:28.109Z,8.50
2023-01-07T18:06:34.990Z,8.50
2023-01-07T18:08:39.886Z,8.50
2023-01-07T18:10:58.335Z,8.50
2023-01-07T18:13:05.827Z,8.40
2023-01-07T18:15:23.657Z,8.40
2023-01-07T18:17:29.533Z,8.40
2023-01-07T18:19:34.824Z,8.40
2023-01-07T18:21:39.884Z,8.40
2023-01-07T18:23:45.943Z,8.30
2023-01-07T18:25:51.030Z,8.30
2023-01-07T18:27:56.957Z,8.20
2023-01-07T18:30:04.507Z,8.20
2023-01-07T18:32:10.344Z,8.20
2023-01-07T18:34:18.059Z,8.20
2023-01-07T18:36:23.022Z,8.10
2023-01-07T18:38:28.633Z,8.10
2023-01-07T18:40:34.049Z,8.00
2023-01-07T18:44:43.893Z,8.00
2023-01-07T18:46:51.520Z,8.00
2023-01-07T18:48:57.376Z,7.80
2023-01-07T18:51:02.308Z,7.80
2023-01-07T18:53:07.209Z,7.90
2023-01-07T18:55:17.762Z,7.90
2023-01-07T18:57:23.040Z,7.90
2023-01-07T18:59:28.242Z,7.90
2023-01-07T19:01:33.511Z,7.80
2023-01-07T19:03:41.509Z,7.80
2023-01-07T19:05:46.735Z,7.80
2023-01-07T19:07:52.888Z,7.80
2023-01-07T19:09:57.862Z,7.80
2023-01-07T19:12:03.244Z,7.70
2023-01-07T19:14:08.188Z,7.70
2023-01-07T19:16:15.651Z,7.70
2023-01-07T19:18:20.626Z,7.70
2023-01-07T19:20:28.226Z,7.70
2023-01-07T19:22:33.247Z,7.70
2023-01-07T19:24:38.221Z,7.60
2023-01-07T19:26:43.186Z,7.60
2023-01-07T19:28:48.541Z,7.60
2023-01-07T19:30:53.525Z,7.60
2023-01-07T19:32:58.651Z,7.50
2023-01-07T19:35:03.639Z,7.60
2023-01-07T19:37:11.435Z,7.50
2023-01-07T19:39:18.063Z,7.50
2023-01-07T19:41:24.267Z,7.50
2023-01-07T19:43:29.285Z,7.50
2023-01-07T19:45:35.222Z,7.40
2023-01-07T19:47:40.178Z,7.40
2023-01-07T19:49:45.390Z,7.40
2023-01-07T19:51:52.438Z,7.50
2023-01-07T19:54:00.307Z,7.40
2023-01-07T19:56:08.331Z,7.40
2023-01-07T19:58:13.339Z,7.40
2023-01-07T20:00:18.774Z,7.40
2023-01-07T20:02:24.084Z,7.40
2023-01-07T20:04:29.243Z,7.40
2023-01-07T20:06:38.815Z,7.40
2023-01-07T20:08:44.134Z,7.40
2023-01-07T20:11:01.560Z,7.30
2023-01-07T20:13:06.470Z,7.30
2023-01-07T20:15:13.285Z,7.30
2023-01-07T20:17:18.218Z,7.30
2023-01-07T20:19:23.792Z,7.30
2023-01-07T20:21:29.717Z,7.30
2023-01-07T20:23:36.702Z,7.20
2023-01-07T20:25:45.288Z,7.20
2023-01-07T20:27:53.240Z,7.20
2023-01-07T20:29:58.175Z,7.20
2023-01-07T20:32:07.388Z,7.20
2023-01-07T20:34:13.337Z,7.20
2023-01-07T20:36:21.116Z,7.20
2023-01-07T20:38:26.020Z,7.10
2023-01-07T20:40:31.357Z,7.10
2023-01-07T20:42:36.339Z,7.10
2023-01-07T20:44:43.833Z,7.10
2023-01-07T20:46:48.769Z,7.10
2023-01-07T20:48:54.453Z,7.20
2023-01-07T20:51:00.379Z,7.10
2023-01-07T20:53:05.335Z,7.10
2023-01-07T20:55:11.596Z,7.10
2023-01-07T20:57:16.548Z,7.10
2023-01-07T20:59:21.610Z,7.10
2023-01-07T21:01:29.727Z,7.10
2023-01-07T21:03:35.034Z,7.10
2023-01-07T21:05:40.873Z,7.10
2023-01-07T21:07:45.852Z,7.10
2023-01-07T21:09:50.883Z,7.10
2023-01-07T21:11:56.605Z,7.10
2023-01-07T21:14:02.366Z,7.10
2023-01-07T21:16:08.576Z,7.10
2023-01-07T21:18:16.188Z,7.10
2023-01-07T21:20:21.418Z,7.10
2023-01-07T21:22:26.721Z,7.10
2023-01-07T21:24:32.796Z,7.10
2023-01-07T21:26:37.966Z,7.10
2023-01-07T21:28:44.334Z,7.10
2023-01-07T21:30:50.124Z,7.10
2023-01-07T21:32:55.461Z,7.10
2023-01-07T21:35:03.165Z,7.20
2023-01-07T21:37:08.126Z,7.20
2023-01-07T21:39:15.698Z,7.20
2023-01-07T21:41:20.737Z,7.20
2023-01-07T21:43:25.746Z,7.20
2023-01-07T21:45:31.699Z,7.20
2023-01-07T21:47:36.724Z,7.20
2023-01-07T21:49:42.087Z,7.10
2023-01-07T21:51:51.481Z,7.20
2023-01-07T21:53:58.331Z,7.20
2023-01-07T21:56:09.510Z,7.20
2023-01-07T21:58:14.481Z,7.20
2023-01-07T22:00:20.394Z,7.20
2023-01-07T22:02:25.439Z,7.20
2023-01-07T22:04:30.676Z,7.10
2023-01-07T22:06:38.292Z,7.10
2023-01-07T22:08:45.865Z,7.10
2023-01-07T22:10:51.268Z,7.00
2023-01-07T22:12:56.248Z,7.00
2023-01-07T22:15:01.607Z,7.00
2023-01-07T22:17:06.717Z,7.00
2023-01-07T22:19:12.718Z,7.00
2023-01-07T22:21:19.070Z,7.00
2023-01-07T22:23:24.635Z,7.00
2023-01-07T22:25:32.619Z,7.00
2023-01-07T22:27:37.866Z,7.00
2023-01-07T22:29:44.422Z,7.00
2023-01-07T22:31:52.734Z,7.00
2023-01-07T22:33:57.983Z,7.00
2023-01-07T22:36:03.160Z,7.00
2023-01-07T22:38:08.651Z,7.00
2023-01-07T22:40:15.229Z,6.90
2023-01-07T22:42:27.326Z,7.00
2023-01-07T22:44:37.185Z,6.90
2023-01-07T22:46:44.447Z,6.90
2023-01-07T22:48:49.500Z,6.90
2023-01-07T22:50:58.957Z,6.90
2023-01-07T22:53:04.362Z,6.90
2023-01-07T22:55:11.000Z,6.90
2023-01-07T22:57:16.824Z,6.90
2023-01-07T22:59:24.395Z,7.00
2023-01-07T23:01:29.940Z,6.90
2023-01-07T23:03:35.315Z,6.90
2023-01-07T23:05:40.494Z,7.00
2023-01-07T23:07:45.678Z,6.90
2023-01-07T23:09:51.710Z,6.90
2023-01-07T23:11:59.535Z,7.00
2023-01-07T23:14:04.726Z,7.00
2023-01-07T23:16:12.483Z,7.10
2023-01-07T23:18:17.494Z,7.10
2023-01-07T23:20:23.195Z,7.20
2023-01-07T23:22:28.214Z,7.20
2023-01-07T23:24:33.614Z,7.20
2023-01-07T23:26:39.427Z,7.20
2023-01-07T23:28:45.334Z,7.30
2023-01-07T23:30:52.090Z,7.40
2023-01-07T23:33:00.165Z,7.40
2023-01-07T23:35:06.553Z,7.60
2023-01-07T23:37:14.591Z,7.80
2023-01-07T23:39:20.114Z,7.80
2023-01-07T23:41:28.228Z,7.80
2023-01-07T23:43:33.973Z,7.80
2023-01-07T23:45:39.010Z,7.80
2023-01-07T23:47:44.445Z,7.80
2023-01-07T23:49:52.044Z,7.90
2023-01-07T23:51:57.214Z,8.00
2023-01-07T23:54:02.668Z,7.90
2023-01-07T23:56:09.713Z,8.00
2023-01-07T23:58:15.232Z,8.20
